createdAt,value
2022-12-08T00:00:18.003Z,11.43
2022-12-08T00:03:01.715Z,10.13
2022-12-08T00:05:48.597Z,10.37
2022-12-08T00:08:34.439Z,10.40
2022-12-08T00:11:02.732Z,11.60
2022-12-08T00:13:30.906Z,12.17
2022-12-08T00:16:01.706Z,11.07
2022-12-08T00:18:29.696Z,10.63
2022-12-08T00:21:00.010Z,11.03
2022-12-08T00:23:28.567Z,11.73
2022-12-08T00:25:56.606Z,11.37
2022-12-08T00:28:24.581Z,11.43
2022-12-08T00:30:52.733Z,12.10
2022-12-08T00:33:20.647Z,11.67
2022-12-08T00:35:48.678Z,11.50
2022-12-08T00:38:18.073Z,11.50
2022-12-08T00:40:46.584Z,12.33
2022-12-08T00:43:15.285Z,12.43
2022-12-08T00:45:44.529Z,11.13
2022-12-08T00:48:15.503Z,11.80
2022-12-08T00:50:43.835Z,10.17
2022-12-08T00:53:13.262Z,11.13
2022-12-08T00:55:43.498Z,11.40
2022-12-08T00:58:11.539Z,11.40
2022-12-08T01:00:42.726Z,11.33
2022-12-08T01:03:11.626Z,12.00
2022-12-08T01:05:39.805Z,11.67
2022-12-08T01:08:08.434Z,10.90
2022-12-08T01:10:36.997Z,10.90
2022-12-08T01:13:06.650Z,11.60
2022-12-08T01:15:34.730Z,12.47
2022-12-08T01:18:06.583Z,10.90
2022-12-08T01:20:34.598Z,11.40
2022-12-08T01:23:02.635Z,11.57
2022-12-08T01:25:30.919Z,12.37
2022-12-08T01:27:58.974Z,13.93
2022-12-08T01:30:28.331Z,12.30
2022-12-08T01:32:56.804Z,10.10
2022-12-08T01:35:25.102Z,10.80
2022-12-08T01:37:53.237Z,11.93
2022-12-08T01:40:21.378Z,10.83
2022-12-08T01:42:50.202Z,12.10
2022-12-08T01:45:24.286Z,11.80
2022-12-08T01:47:57.695Z,11.63
2022-12-08T01:50:26.491Z,12.70
2022-12-08T01:52:58.708Z,10.47
2022-12-08T01:55:32.579Z,11.10
2022-12-08T01:58:06.469Z,11.13
2022-12-08T02:00:34.666Z,10.30
2022-12-08T02:03:08.146Z,12.33
2022-12-08T02:05:38.817Z,10.97
2022-12-08T02:08:09.848Z,10.67
2022-12-08T02:10:39.626Z,11.10
2022-12-08T02:13:12.027Z,10.97
2022-12-08T02:15:48.712Z,10.90
2022-12-08T02:18:37.684Z,12.30
2022-12-08T02:21:10.041Z,10.53
2022-12-08T02:23:46.163Z,11.57
2022-12-08T02:27:00.131Z,11.57
2022-12-08T02:29:56.075Z,11.40
2022-12-08T02:32:57.915Z,9.20
2022-12-08T02:35:30.860Z,11.37
2022-12-08T02:38:07.671Z,10.87
2022-12-08T02:40:40.814Z,10.67
2022-12-08T02:43:13.937Z,10.80
2022-12-08T02:45:49.090Z,10.87
2022-12-08T02:48:17.401Z,10.20
2022-12-08T02:50:47.222Z,10.03
2022-12-08T02:55:54.524Z,10.23
2022-12-08T02:58:53.723Z,11.10
2022-12-08T03:01:41.824Z,10.23
2022-12-08T03:04:16.246Z,11.10
2022-12-08T03:06:54.791Z,10.70
2022-12-08T03:09:31.810Z,9.53
2022-12-08T03:12:04.629Z,10.63
2022-12-08T03:14:34.714Z,10.10
2022-12-08T03:17:04.090Z,9.00
2022-12-08T03:19:36.324Z,9.57
2022-12-08T03:22:07.835Z,9.60
2022-12-08T03:24:46.453Z,8.63
2022-12-08T03:27:19.185Z,8.23
2022-12-08T03:29:48.014Z,9.40
2022-12-08T03:32:24.625Z,9.17
2022-12-08T03:34:53.386Z,8.63
2022-12-08T03:37:23.277Z,9.77
2022-12-08T03:39:51.602Z,8.03
2022-12-08T03:42:19.584Z,10.03
2022-12-08T03:44:47.800Z,9.37
2022-12-08T03:47:15.972Z,9.70
2022-12-08T03:49:44.131Z,8.87
2022-12-08T03:52:12.256Z,10.10
2022-12-08T03:54:41.689Z,9.80
2022-12-08T03:57:10.144Z,9.30
2022-12-08T03:59:38.195Z,10.17
2022-12-08T04:02:06.411Z,9.10
2022-12-08T04:04:34.694Z,8.43
2022-12-08T04:07:02.827Z,9.87
2022-12-08T04:09:31.216Z,8.73
2022-12-08T04:12:00.825Z,9.63
2022-12-08T04:14:29.218Z,10.20
2022-12-08T04:16:57.378Z,9.10
2022-12-08T04:19:25.747Z,10.17
2022-12-08T04:21:54.086Z,8.37
2022-12-08T04:24:22.220Z,9.23
2022-12-08T04:26:50.778Z,10.00
2022-12-08T04:29:20.564Z,11.20
2022-12-08T04:32:03.892Z,10.23
2022-12-08T04:34:32.051Z,11.00
2022-12-08T04:37:00.426Z,8.97
2022-12-08T04:39:28.865Z,10.43
2022-12-08T04:41:56.856Z,11.10
2022-12-08T04:44:26.275Z,10.70
2022-12-08T04:46:54.629Z,10.90
2022-12-08T04:49:22.735Z,11.13
2022-12-08T04:51:50.831Z,11.53
2022-12-08T04:54:19.329Z,9.47
2022-12-08T04:56:47.588Z,11.17
2022-12-08T04:59:15.545Z,9.97
2022-12-08T05:01:45.320Z,11.13
2022-12-08T05:04:15.294Z,10.13
2022-12-08T05:06:46.126Z,11.40
2022-12-08T05:09:16.912Z,11.53
2022-12-08T05:11:49.141Z,10.20
2022-12-08T05:14:18.976Z,11.03
2022-12-08T05:16:48.895Z,10.63
2022-12-08T05:19:17.675Z,10.77
2022-12-08T05:21:52.136Z,11.70
2022-12-08T05:24:23.979Z,9.93
2022-12-08T05:26:54.999Z,11.17
2022-12-08T05:29:23.032Z,10.53
2022-12-08T05:31:52.549Z,11.57
2022-12-08T05:34:20.634Z,10.70
2022-12-08T05:36:51.222Z,11.60
2022-12-08T05:39:19.318Z,10.90
2022-12-08T05:41:47.330Z,12.07
2022-12-08T05:44:15.340Z,11.43
2022-12-08T05:46:43.301Z,12.17
2022-12-08T05:49:13.881Z,11.73
2022-12-08T05:51:47.608Z,10.77
2022-12-08T05:54:20.124Z,12.93
2022-12-08T05:56:52.697Z,12.23
2022-12-08T05:59:26.366Z,12.17
2022-12-08T06:01:55.474Z,11.50
2022-12-08T06:04:27.808Z,11.70
2022-12-08T06:07:15.954Z,10.40
2022-12-08T06:09:49.658Z,12.07
2022-12-08T06:12:19.095Z,10.37
2022-12-08T06:14:49.210Z,11.60
2022-12-08T06:17:17.247Z,9.80
2022-12-08T06:19:55.666Z,10.57
2022-12-08T06:22:32.782Z,11.30
2022-12-08T06:25:05.009Z,11.47
2022-12-08T06:27:35.639Z,11.00
2022-12-08T06:30:04.367Z,12.43
2022-12-08T06:32:34.368Z,10.27
2022-12-08T06:35:04.123Z,12.53
2022-12-08T06:37:33.482Z,12.17
2022-12-08T06:40:01.840Z,11.03
2022-12-08T06:42:51.592Z,12.57
2022-12-08T06:45:20.468Z,12.77
2022-12-08T06:47:48.536Z,11.97
2022-12-08T06:50:18.682Z,12.70
2022-12-08T06:53:03.009Z,11.70
2022-12-08T06:55:57.933Z,12.87
2022-12-08T06:58:22.846Z,11.40
2022-12-08T07:00:51.323Z,11.47
2022-12-08T07:03:20.554Z,10.77
2022-12-08T07:05:50.451Z,12.20
2022-12-08T07:08:19.966Z,12.93
2022-12-08T07:10:48.016Z,12.77
2022-12-08T07:13:16.821Z,11.47
2022-12-08T07:15:45.590Z,12.33
2022-12-08T07:18:13.828Z,12.60
2022-12-08T07:20:41.831Z,13.67
2022-12-08T07:23:11.419Z,11.77
2022-12-08T07:25:44.641Z,10.67
2022-12-08T07:28:13.681Z,11.10
2022-12-08T07:30:41.927Z,11.80
2022-12-08T07:33:10.001Z,11.87
2022-12-08T07:35:38.273Z,11.60
2022-12-08T07:38:06.380Z,12.20
2022-12-08T07:40:36.782Z,11.03
2022-12-08T07:43:05.117Z,11.50
2022-12-08T07:45:34.371Z,12.37
2022-12-08T07:48:05.182Z,12.37
2022-12-08T07:50:33.474Z,10.93
2022-12-08T07:53:01.591Z,11.67
2022-12-08T07:55:30.343Z,10.90
2022-12-08T07:58:00.042Z,8.10
2022-12-08T08:00:28.418Z,12.27
2022-12-08T08:02:56.619Z,11.20
2022-12-08T08:05:24.928Z,11.60
2022-12-08T08:07:52.980Z,13.13
2022-12-08T08:10:21.079Z,11.43
2022-12-08T08:12:49.453Z,11.60
2022-12-08T08:15:21.373Z,10.70
2022-12-08T08:17:52.007Z,11.20
2022-12-08T08:20:20.938Z,11.80
2022-12-08T08:22:50.301Z,10.60
2022-12-08T08:25:18.955Z,12.03
2022-12-08T08:27:48.243Z,11.63
2022-12-08T08:30:20.933Z,11.90
2022-12-08T08:32:49.737Z,11.53
2022-12-08T08:35:18.122Z,10.30
2022-12-08T08:37:49.139Z,10.87
2022-12-08T08:40:17.884Z,11.43
2022-12-08T08:42:46.858Z,13.20
2022-12-08T08:45:15.407Z,10.73
2022-12-08T08:47:45.948Z,10.70
2022-12-08T08:50:14.311Z,11.33
2022-12-08T08:52:42.793Z,11.17
2022-12-08T08:55:11.459Z,11.50
2022-12-08T08:57:39.863Z,11.00
2022-12-08T09:00:10.254Z,11.03
2022-12-08T09:02:38.927Z,10.70
2022-12-08T09:05:11.008Z,11.80
2022-12-08T09:07:39.133Z,9.87
2022-12-08T09:10:09.454Z,11.47
2022-12-08T09:12:38.463Z,10.77
2022-12-08T09:15:07.542Z,11.97
2022-12-08T09:17:36.201Z,11.07
2022-12-08T09:20:05.567Z,10.50
2022-12-08T09:22:35.941Z,9.27
2022-12-08T09:25:04.769Z,11.60
2022-12-08T09:27:33.009Z,9.20
2022-12-08T09:30:01.115Z,11.13
2022-12-08T09:32:29.296Z,10.93
2022-12-08T09:34:57.757Z,10.33
2022-12-08T09:37:38.424Z,10.33
2022-12-08T09:40:11.784Z,8.27
2022-12-08T09:42:48.973Z,9.33
2022-12-08T09:45:19.091Z,5.77
2022-12-08T09:47:53.826Z,9.93
2022-12-08T09:50:32.077Z,10.30
2022-12-08T09:53:07.305Z,10.27
2022-12-08T09:55:43.231Z,10.37
2022-12-08T09:58:21.470Z,9.37
2022-12-08T10:00:49.553Z,9.90
2022-12-08T10:03:18.771Z,9.50
2022-12-08T10:05:53.033Z,10.20
2022-12-08T10:08:24.505Z,8.57
2022-12-08T10:10:58.875Z,9.50
2022-12-08T10:13:36.541Z,10.50
2022-12-08T10:16:24.146Z,9.50
2022-12-08T10:18:59.266Z,9.30
2022-12-08T10:21:29.870Z,9.53
2022-12-08T10:24:03.022Z,8.63
2022-12-08T10:26:33.898Z,9.77
2022-12-08T10:29:04.645Z,9.40
2022-12-08T10:31:33.158Z,8.87
2022-12-08T10:34:14.033Z,8.93
2022-12-08T10:36:51.742Z,9.33
2022-12-08T10:39:39.859Z,8.90
2022-12-08T10:42:19.948Z,9.93
2022-12-08T10:44:58.834Z,8.37
2022-12-08T10:47:28.530Z,9.40
2022-12-08T10:50:18.198Z,8.00
2022-12-08T10:52:46.701Z,8.10
2022-12-08T10:55:20.273Z,8.03
2022-12-08T10:57:50.040Z,8.10
2022-12-08T11:00:20.910Z,8.00
2022-12-08T11:02:55.394Z,8.27
2022-12-08T11:05:27.223Z,8.40
2022-12-08T11:07:57.029Z,8.17
2022-12-08T11:10:33.993Z,9.13
2022-12-08T11:13:08.108Z,8.87
2022-12-08T11:15:41.849Z,8.50
2022-12-08T11:18:23.062Z,7.63
2022-12-08T11:21:01.899Z,7.40
2022-12-08T11:23:33.604Z,6.93
2022-12-08T11:26:23.077Z,7.40
2022-12-08T11:28:55.369Z,7.87
2022-12-08T11:31:32.400Z,6.20
2022-12-08T11:34:01.861Z,7.43
2022-12-08T11:36:36.538Z,9.43
2022-12-08T11:39:07.793Z,7.97
2022-12-08T11:41:44.768Z,7.50
2022-12-08T11:44:27.996Z,6.70
2022-12-08T11:46:59.916Z,7.60
2022-12-08T11:49:37.348Z,7.17
2022-12-08T11:52:13.318Z,6.87
2022-12-08T11:54:48.133Z,6.27
2022-12-08T11:57:20.820Z,7.20
2022-12-08T11:59:52.457Z,6.70
2022-12-08T12:02:23.548Z,5.70
2022-12-08T12:04:58.001Z,6.70
2022-12-08T12:07:53.947Z,6.50
2022-12-08T12:10:34.559Z,6.30
2022-12-08T12:13:15.677Z,6.07
2022-12-08T12:16:45.921Z,7.17
2022-12-08T12:19:18.465Z,6.70
2022-12-08T12:21:55.216Z,6.27
2022-12-08T12:24:35.440Z,6.33
2022-12-08T12:27:10.983Z,6.67
2022-12-08T12:29:50.937Z,5.63
2022-12-08T12:32:26.247Z,6.10
2022-12-08T12:34:59.086Z,5.70
2022-12-08T12:37:37.696Z,5.70
2022-12-08T12:40:09.395Z,5.93
2022-12-08T12:42:40.510Z,5.00
2022-12-08T12:45:26.671Z,7.17
2022-12-08T12:48:20.901Z,6.20
2022-12-08T12:50:51.499Z,6.23
2022-12-08T12:53:51.828Z,5.63
2022-12-08T12:56:48.448Z,6.33
2022-12-08T12:59:54.686Z,5.83
2022-12-08T13:02:28.802Z,6.63
2022-12-08T13:05:02.495Z,7.30
2022-12-08T13:07:35.573Z,6.53
2022-12-08T13:10:14.190Z,6.80
2022-12-08T13:12:45.617Z,6.90
2022-12-08T13:15:20.948Z,6.47
2022-12-08T13:17:50.807Z,8.27
2022-12-08T13:20:22.856Z,8.13
2022-12-08T13:23:12.549Z,7.67
2022-12-08T13:25:52.375Z,6.93
2022-12-08T13:28:27.088Z,6.60
2022-12-08T13:30:56.698Z,7.33
2022-12-08T13:33:29.117Z,5.93
2022-12-08T13:36:12.021Z,6.43
2022-12-08T13:38:46.075Z,7.30
2022-12-08T13:41:19.687Z,7.03
2022-12-08T13:44:50.306Z,6.63
2022-12-08T13:47:09.908Z,6.37
2022-12-08T13:58:22.060Z,7.50
2022-12-08T14:01:01.682Z,5.63
2022-12-08T14:03:30.442Z,7.13
2022-12-08T14:06:14.561Z,7.27
2022-12-08T14:09:06.685Z,6.67
2022-12-08T14:11:38.306Z,8.30
2022-12-08T14:14:09.125Z,6.67
2022-12-08T14:16:40.220Z,6.37
2022-12-08T14:19:17.273Z,5.23
2022-12-08T14:21:49.060Z,5.80
2022-12-08T14:24:16.985Z,6.30
2022-12-08T14:26:48.124Z,6.47
2022-12-08T14:29:40.708Z,5.30
2022-12-08T14:32:22.732Z,5.63
2022-12-08T14:34:59.848Z,5.93
2022-12-08T14:37:29.406Z,6.00
2022-12-08T14:40:02.056Z,5.33
2022-12-08T14:42:32.107Z,5.63
2022-12-08T14:45:04.428Z,5.90
2022-12-08T14:47:34.233Z,6.00
2022-12-08T14:50:03.490Z,5.80
2022-12-08T14:52:32.212Z,4.83
2022-12-08T14:55:00.475Z,4.30
2022-12-08T14:57:36.376Z,5.90
2022-12-08T15:00:19.624Z,6.40
2022-12-08T15:02:47.935Z,6.40
2022-12-08T15:05:20.213Z,6.40
2022-12-08T15:07:51.572Z,4.90
2022-12-08T15:10:31.056Z,5.07
2022-12-08T15:13:20.749Z,5.37
2022-12-08T15:15:50.806Z,5.00
2022-12-08T15:18:20.555Z,5.50
2022-12-08T15:20:50.852Z,5.20
2022-12-08T15:23:26.017Z,6.07
2022-12-08T15:25:54.414Z,5.83
2022-12-08T15:28:29.691Z,5.20
2022-12-08T15:30:59.563Z,6.00
2022-12-08T15:33:27.943Z,5.93
2022-12-08T15:35:56.013Z,6.43
2022-12-08T15:38:26.798Z,5.90
2022-12-08T15:40:55.907Z,5.83
2022-12-08T15:43:25.221Z,7.10
2022-12-08T15:46:01.177Z,5.37
2022-12-08T15:48:30.907Z,5.50
2022-12-08T15:50:59.613Z,5.90
2022-12-08T15:53:28.048Z,5.70
2022-12-08T15:56:26.911Z,6.00
2022-12-08T15:58:55.627Z,6.10
2022-12-08T16:01:25.741Z,5.53
2022-12-08T16:04:47.300Z,5.30
2022-12-08T16:09:34.865Z,5.90
2022-12-08T16:12:21.075Z,5.97
2022-12-08T16:17:39.651Z,4.90
2022-12-08T16:20:12.098Z,5.70
2022-12-08T16:23:03.564Z,5.27
2022-12-08T16:25:46.220Z,5.87
2022-12-08T16:28:52.053Z,6.27
2022-12-08T16:31:13.039Z,4.93
2022-12-08T16:33:42.826Z,4.93
2022-12-08T16:36:11.897Z,5.53
2022-12-08T16:38:40.183Z,4.60
2022-12-08T16:41:30.554Z,5.93
2022-12-08T16:44:03.279Z,5.17
2022-12-08T16:46:33.657Z,5.13
2022-12-08T16:49:01.860Z,5.10
2022-12-08T16:51:29.918Z,5.33
2022-12-08T16:53:58.540Z,5.47
2022-12-08T16:56:32.791Z,5.30
2022-12-08T16:59:02.553Z,5.87
2022-12-08T17:01:32.450Z,6.10
2022-12-08T17:04:29.839Z,5.57
2022-12-08T17:06:50.936Z,5.67
2022-12-08T17:09:19.321Z,5.70
2022-12-08T17:11:47.359Z,6.80
2022-12-08T17:14:16.023Z,6.13
2022-12-08T17:16:46.500Z,6.20
2022-12-08T17:19:15.385Z,5.97
2022-12-08T17:21:44.459Z,6.27
2022-12-08T17:24:15.823Z,5.43
2022-12-08T17:26:46.831Z,6.30
2022-12-08T17:29:14.900Z,5.93
2022-12-08T17:31:42.989Z,5.30
2022-12-08T17:34:17.588Z,6.27
2022-12-08T17:36:45.655Z,5.87
2022-12-08T17:39:27.377Z,6.13
2022-12-08T17:41:55.401Z,6.67
2022-12-08T17:44:23.577Z,6.00
2022-12-08T17:46:54.036Z,6.70
2022-12-08T17:49:25.253Z,5.93
2022-12-08T17:51:54.830Z,6.60
2022-12-08T17:54:23.331Z,5.83
2022-12-08T17:56:51.600Z,5.80
2022-12-08T17:59:20.293Z,6.50
2022-12-08T18:01:48.501Z,6.50
2022-12-08T18:04:16.580Z,6.17
2022-12-08T18:06:46.540Z,6.80
2022-12-08T18:09:15.497Z,6.47
2022-12-08T18:11:44.202Z,7.30
2022-12-08T18:14:12.939Z,5.90
2022-12-08T18:16:43.657Z,6.90
2022-12-08T18:19:12.618Z,6.10
2022-12-08T18:21:41.866Z,5.90
2022-12-08T18:24:18.179Z,5.93
2022-12-08T18:26:46.313Z,6.67
2022-12-08T18:29:14.626Z,6.87
2022-12-08T18:31:42.875Z,6.60
2022-12-08T18:34:11.433Z,6.80
2022-12-08T18:36:39.480Z,7.60
2022-12-08T18:39:10.916Z,7.33
2022-12-08T18:41:40.487Z,6.97
2022-12-08T18:44:08.686Z,7.40
2022-12-08T18:46:36.650Z,6.53
2022-12-08T18:49:04.688Z,6.70
2022-12-08T18:51:32.811Z,7.30
2022-12-08T18:54:01.476Z,6.70
2022-12-08T18:56:31.605Z,6.13
2022-12-08T18:59:03.875Z,6.77
2022-12-08T19:01:32.853Z,6.90
2022-12-08T19:06:49.093Z,6.10
2022-12-08T19:09:17.455Z,7.30
2022-12-08T19:11:45.733Z,7.90
2022-12-08T19:14:15.046Z,7.73
2022-12-08T19:16:43.009Z,6.20
2022-12-08T19:19:11.067Z,8.23
2022-12-08T19:21:44.730Z,6.77
2022-12-08T19:24:14.465Z,7.53
2022-12-08T19:26:42.971Z,7.40
2022-12-08T19:29:11.298Z,8.17
2022-12-08T19:31:41.078Z,7.50
2022-12-08T19:34:10.537Z,9.23
2022-12-08T19:36:42.179Z,9.53
2022-12-08T19:39:31.396Z,8.73
2022-12-08T19:42:22.144Z,8.37
2022-12-08T19:44:56.155Z,9.40
2022-12-08T19:47:27.557Z,8.23
2022-12-08T19:50:16.825Z,8.07
2022-12-08T19:52:45.323Z,8.30
2022-12-08T19:55:13.915Z,7.67
2022-12-08T19:57:42.019Z,7.10
2022-12-08T20:00:12.773Z,7.60
2022-12-08T20:02:42.892Z,8.97
2022-12-08T20:05:12.518Z,8.73
2022-12-08T20:07:41.450Z,7.17
2022-12-08T20:10:15.594Z,7.90
2022-12-08T20:12:43.553Z,8.53
2022-12-08T20:15:12.170Z,9.40
2022-12-08T20:17:42.238Z,8.07
2022-12-08T20:20:11.271Z,8.63
2022-12-08T20:22:39.508Z,8.00
2022-12-08T20:25:12.791Z,8.17
2022-12-08T20:27:41.299Z,8.07
2022-12-08T20:30:16.422Z,8.73
2022-12-08T20:32:46.720Z,8.30
2022-12-08T20:35:15.771Z,9.80
2022-12-08T20:37:43.912Z,8.83
2022-12-08T20:40:12.711Z,9.23
2022-12-08T20:42:40.660Z,8.10
2022-12-08T20:45:10.060Z,8.60
2022-12-08T20:47:39.051Z,9.17
2022-12-08T20:50:10.604Z,8.00
2022-12-08T20:52:39.359Z,7.70
2022-12-08T20:55:08.991Z,8.80
2022-12-08T20:57:37.086Z,7.83
2022-12-08T21:00:13.217Z,6.87
2022-12-08T21:02:47.697Z,8.17
2022-12-08T21:05:19.569Z,8.80
2022-12-08T21:07:48.037Z,8.10
2022-12-08T21:10:16.249Z,10.27
2022-12-08T21:12:44.384Z,9.13
2022-12-08T21:15:13.213Z,9.70
2022-12-08T21:17:41.603Z,9.57
2022-12-08T21:20:10.719Z,8.40
2022-12-08T21:22:41.023Z,10.03
2022-12-08T21:25:10.144Z,9.83
2022-12-08T21:27:39.015Z,10.03
2022-12-08T21:30:09.655Z,9.50
2022-12-08T21:32:39.204Z,10.50
2022-12-08T21:35:08.941Z,9.10
2022-12-08T21:37:37.374Z,9.60
2022-12-08T21:40:09.032Z,9.47
2022-12-08T21:42:46.861Z,9.97
2022-12-08T21:45:17.774Z,8.40
2022-12-08T21:47:46.818Z,9.20
2022-12-08T21:50:15.817Z,9.00
2022-12-08T21:52:46.483Z,7.93
2022-12-08T21:55:19.189Z,9.30
2022-12-08T21:57:47.476Z,10.07
2022-12-08T22:00:18.513Z,10.00
2022-12-08T22:02:47.039Z,8.53
2022-12-08T22:05:15.499Z,8.33
2022-12-08T22:07:43.876Z,8.90
2022-12-08T22:10:12.710Z,9.77
2022-12-08T22:12:42.128Z,8.70
2022-12-08T22:15:11.966Z,9.30
2022-12-08T22:17:42.286Z,9.17
2022-12-08T22:20:13.750Z,9.90
2022-12-08T22:22:42.899Z,9.73
2022-12-08T22:25:13.257Z,9.97
2022-12-08T22:27:43.123Z,10.73
2022-12-08T22:30:12.725Z,10.37
2022-12-08T22:32:42.090Z,8.97
2022-12-08T22:35:11.382Z,9.80
2022-12-08T22:37:39.829Z,9.53
2022-12-08T22:40:10.031Z,9.37
2022-12-08T22:42:38.297Z,10.70
2022-12-08T22:45:09.315Z,9.53
2022-12-08T22:47:37.846Z,10.03
2022-12-08T22:50:08.073Z,9.53
2022-12-08T22:52:36.642Z,9.67
2022-12-08T22:55:05.073Z,10.27
2022-12-08T22:57:33.380Z,8.50
2022-12-08T23:00:01.511Z,10.00
2022-12-08T23:02:31.267Z,10.43
2022-12-08T23:04:59.476Z,9.30
2022-12-08T23:07:27.785Z,9.23
2022-12-08T23:09:56.051Z,9.77
2022-12-08T23:12:24.170Z,9.33
2022-12-08T23:14:52.215Z,8.90
2022-12-08T23:17:20.314Z,10.07
2022-12-08T23:19:49.691Z,9.67
2022-12-08T23:22:18.134Z,9.23
2022-12-08T23:24:46.165Z,8.17
2022-12-08T23:27:14.188Z,9.70
2022-12-08T23:29:42.301Z,10.67
2022-12-08T23:32:16.769Z,9.80
2022-12-08T23:34:44.809Z,9.60
2022-12-08T23:37:14.364Z,10.07
2022-12-08T23:39:42.313Z,10.00
2022-12-08T23:42:10.660Z,8.53
2022-12-08T23:44:38.740Z,9.47
2022-12-08T23:47:06.857Z,9.40
2022-12-08T23:49:35.044Z,11.60
2022-12-08T23:52:03.049Z,10.20
2022-12-08T23:54:32.629Z,10.43
2022-12-08T23:57:01.019Z,9.73
2022-12-08T23:59:29.052Z,10.30
